PWSweather.com
Personal Weather Stations
Station Observations
WATERF01
WaterfordIE

WaterfordIE

Lat: 52.2412507, Lon: -7.1414691

Elevation: 65

Station Type: Davis Vantage Vue

www.waterfordweather.com

High Low Average
Temperature 55.5°F13.1°C 46.8°F8.2°C 51.6°F10.9°C
Dew Point 52.8°F11.6°C 44.2°F6.8°C 48.4°F9.1°C
Winds 17.3 mph 27.8 kmh Calm Calm 8.0 mph WSW12.9 kmh WSW
Wind Gusts 28.8 mph46.3 kmh 2.3 mph3.7 kmh 14.0 mph22.5 kmh
Humidity 97% 75% 89%
Pressure 29.44 in997.0 mb 29.05 in983.7 mb -
Precipitation 0.20 in5.1 mm - -
Hour Temp Dew Point Humidity Winds Wind Gusts Pressure Precip Precip Rate Daily Precip Total
12:00 AM 51.9°F11.1°C 51.1°F10.6°C 97% 9.2 mph WSW14.8 kmh WSW 16.1 mph25.9 kmh 29.05 in983.7 mb - 0.00 in0.0 mm 0.00 in0.0 mm
12:10 AM 52.1°F11.2°C 51.3°F10.7°C 97% 8.1 mph W13.0 kmh W 13.8 mph22.2 kmh 29.05 in983.7 mb - 0.00 in0.0 mm 0.00 in0.0 mm
12:20 AM 52.1°F11.2°C 51.3°F10.7°C 97% 4.6 mph S7.4 kmh S 8.1 mph13.0 kmh 29.05 in983.7 mb - 0.00 in0.0 mm 0.00 in0.0 mm
12:30 AM 52.1°F11.2°C 51.3°F10.7°C 97% 1.2 mph NW1.9 kmh NW 6.9 mph11.1 kmh 29.05 in983.7 mb - 0.00 in0.0 mm 0.00 in0.0 mm
12:40 AM 52.2°F11.2°C 51.4°F10.8°C 97% 3.5 mph WSW5.6 kmh WSW 11.5 mph18.5 kmh 29.06 in984.1 mb - 0.00 in0.0 mm 0.00 in0.0 mm
12:50 AM 52.4°F11.3°C 51.6°F10.9°C 97% 5.8 mph W9.3 kmh W 8.1 mph13.0 kmh 29.06 in984.1 mb - 0.00 in0.0 mm 0.00 in0.0 mm
01:00 AM 52.5°F11.4°C 51.7°F10.9°C 97% 4.6 mph WSW7.4 kmh WSW 9.2 mph14.8 kmh 29.06 in984.1 mb - 0.00 in0.0 mm 0.00 in0.0 mm
01:10 AM 52.3°F11.3°C 51.5°F10.8°C 97% 3.5 mph W5.6 kmh W 5.8 mph9.3 kmh 29.07 in984.4 mb - 0.00 in0.0 mm 0.00 in0.0 mm
01:20 AM 52.5°F11.4°C 51.7°F10.9°C 97% 6.9 mph WSW11.1 kmh WSW 8.1 mph13.0 kmh 29.08 in984.8 mb - 0.00 in0.0 mm 0.00 in0.0 mm
01:30 AM 52.6°F11.4°C 51.8°F11.0°C 97% 3.5 mph WSW5.6 kmh WSW 8.1 mph13.0 kmh 29.09 in985.1 mb - 0.00 in0.0 mm 0.00 in0.0 mm
01:40 AM 52.5°F11.4°C 51.7°F10.9°C 97% 3.5 mph W5.6 kmh W 6.9 mph11.1 kmh 29.09 in985.1 mb - 0.00 in0.0 mm 0.00 in0.0 mm
01:50 AM 52.5°F11.4°C 51.7°F10.9°C 97% 3.5 mph WSW5.6 kmh WSW 6.9 mph11.1 kmh 29.10 in985.4 mb - 0.00 in0.0 mm 0.00 in0.0 mm
02:00 AM 52.3°F11.3°C 51.5°F10.8°C 97% 5.8 mph W9.3 kmh W 8.1 mph13.0 kmh 29.10 in985.4 mb - 0.00 in0.0 mm 0.00 in0.0 mm
02:10 AM 52.3°F11.3°C 51.5°F10.8°C 97% 8.1 mph W13.0 kmh W 13.8 mph22.2 kmh 29.11 in985.8 mb - 0.00 in0.0 mm 0.00 in0.0 mm
02:20 AM 52.8°F11.6°C 52.0°F11.1°C 97% 8.1 mph W13.0 kmh W 18.4 mph29.6 kmh 29.11 in985.8 mb - 0.00 in0.0 mm 0.00 in0.0 mm
02:30 AM 53.5°F11.9°C 52.4°F11.3°C 96% 9.2 mph W14.8 kmh W 13.8 mph22.2 kmh 29.11 in985.8 mb - 0.00 in0.0 mm 0.00 in0.0 mm
02:40 AM 54.5°F12.5°C 52.8°F11.6°C 94% 11.5 mph WSW18.5 kmh WSW 16.1 mph25.9 kmh 29.11 in985.8 mb - 0.00 in0.0 mm 0.00 in0.0 mm
02:50 AM 55.0°F12.8°C 51.8°F11.0°C 89% 9.2 mph W14.8 kmh W 13.8 mph22.2 kmh 29.12 in986.1 mb - 0.00 in0.0 mm 0.00 in0.0 mm
03:00 AM 54.9°F12.7°C 51.4°F10.8°C 88% 9.2 mph W14.8 kmh W 13.8 mph22.2 kmh 29.13 in986.5 mb - 0.00 in0.0 mm 0.00 in0.0 mm
03:10 AM 55.3°F12.9°C 51.2°F10.7°C 86% 15.0 mph W24.1 kmh W 21.9 mph35.2 kmh 29.13 in986.5 mb - 0.00 in0.0 mm 0.00 in0.0 mm
03:20 AM 55.5°F13.1°C 51.1°F10.6°C 85% 11.5 mph W18.5 kmh W 27.6 mph44.4 kmh 29.14 in986.8 mb - 0.00 in0.0 mm 0.00 in0.0 mm
03:30 AM 55.5°F13.1°C 51.1°F10.6°C 85% 16.1 mph W25.9 kmh W 26.5 mph42.6 kmh 29.14 in986.8 mb - 0.00 in0.0 mm 0.00 in0.0 mm
03:40 AM 55.4°F13.0°C 50.6°F10.3°C 84% 16.1 mph WNW25.9 kmh WNW 25.3 mph40.7 kmh 29.15 in987.1 mb - 0.00 in0.0 mm 0.00 in0.0 mm
03:50 AM 55.3°F12.9°C 50.5°F10.3°C 84% 10.4 mph W16.7 kmh W 19.6 mph31.5 kmh 29.15 in987.1 mb - 0.00 in0.0 mm 0.00 in0.0 mm
04:00 AM 55.4°F13.0°C 50.3°F10.2°C 83% 12.7 mph WNW20.4 kmh WNW 25.3 mph40.7 kmh 29.16 in987.5 mb - 0.00 in0.0 mm 0.00 in0.0 mm
04:10 AM 55.3°F12.9°C 50.2°F10.1°C 83% 11.5 mph WNW18.5 kmh WNW 19.6 mph31.5 kmh 29.17 in987.8 mb - 0.00 in0.0 mm 0.00 in0.0 mm
04:20 AM 55.0°F12.8°C 49.9°F9.9°C 83% 10.4 mph W16.7 kmh W 16.1 mph25.9 kmh 29.18 in988.1 mb - 0.00 in0.0 mm 0.00 in0.0 mm
04:30 AM 54.7°F12.6°C 49.9°F9.9°C 84% 10.4 mph WNW16.7 kmh WNW 15.0 mph24.1 kmh 29.18 in988.1 mb - 0.00 in0.0 mm 0.00 in0.0 mm
04:40 AM 54.5°F12.5°C 49.4°F9.7°C 83% 13.8 mph W22.2 kmh W 19.6 mph31.5 kmh 29.19 in988.5 mb - 0.00 in0.0 mm 0.00 in0.0 mm
04:50 AM 54.2°F12.3°C 49.1°F9.5°C 83% 12.7 mph WNW20.4 kmh WNW 19.6 mph31.5 kmh 29.21 in989.2 mb - 0.00 in0.0 mm 0.00 in0.0 mm
05:00 AM 54.0°F12.2°C 49.3°F9.6°C 84% 9.2 mph W14.8 kmh W 16.1 mph25.9 kmh 29.21 in989.2 mb - 0.00 in0.0 mm 0.00 in0.0 mm
05:10 AM 54.0°F12.2°C 49.0°F9.4°C 83% 10.4 mph WNW16.7 kmh WNW 19.6 mph31.5 kmh 29.21 in989.2 mb - 0.00 in0.0 mm 0.00 in0.0 mm
05:20 AM 54.1°F12.3°C 49.0°F9.4°C 83% 10.4 mph W16.7 kmh W 13.8 mph22.2 kmh 29.23 in989.8 mb - 0.00 in0.0 mm 0.00 in0.0 mm
05:30 AM 54.1°F12.3°C 49.4°F9.7°C 84% 10.4 mph W16.7 kmh W 12.7 mph20.4 kmh 29.23 in989.8 mb - 0.00 in0.0 mm 0.00 in0.0 mm
05:40 AM 54.0°F12.2°C 49.3°F9.6°C 84% 8.1 mph W13.0 kmh W 16.1 mph25.9 kmh 29.23 in989.8 mb - 0.00 in0.0 mm 0.00 in0.0 mm
05:50 AM 54.0°F12.2°C 49.0°F9.4°C 83% 10.4 mph WNW16.7 kmh WNW 21.9 mph35.2 kmh 29.24 in990.2 mb - 0.00 in0.0 mm 0.00 in0.0 mm
06:00 AM 54.1°F12.3°C 48.7°F9.3°C 82% 11.5 mph W18.5 kmh W 13.8 mph22.2 kmh 29.25 in990.5 mb - 0.00 in0.0 mm 0.00 in0.0 mm
06:10 AM 53.8°F12.1°C 48.8°F9.3°C 83% 6.9 mph W11.1 kmh W 20.7 mph33.3 kmh 29.26 in990.9 mb - 0.00 in0.0 mm 0.00 in0.0 mm
06:20 AM 53.1°F11.7°C 49.1°F9.5°C 86% 5.8 mph WSW9.3 kmh WSW 13.8 mph22.2 kmh 29.26 in990.9 mb - 0.00 in0.0 mm 0.00 in0.0 mm
06:30 AM 52.4°F11.3°C 48.9°F9.4°C 88% 8.1 mph W13.0 kmh W 16.1 mph25.9 kmh 29.27 in991.2 mb - 0.00 in0.0 mm 0.00 in0.0 mm
06:40 AM 52.0°F11.1°C 48.6°F9.2°C 88% 6.9 mph WSW11.1 kmh WSW 11.5 mph18.5 kmh 29.27 in991.2 mb - 0.00 in0.0 mm 0.00 in0.0 mm
06:50 AM 51.7°F10.9°C 48.6°F9.2°C 89% 6.9 mph W11.1 kmh W 11.5 mph18.5 kmh 29.28 in991.5 mb - 0.00 in0.0 mm 0.00 in0.0 mm
07:00 AM 51.6°F10.9°C 48.5°F9.2°C 89% 5.8 mph WSW9.3 kmh WSW 11.5 mph18.5 kmh 29.29 in991.9 mb - 0.00 in0.0 mm 0.00 in0.0 mm
07:10 AM 51.2°F10.7°C 48.4°F9.1°C 90% 2.3 mph W3.7 kmh W 5.8 mph9.3 kmh 29.28 in991.5 mb - 0.00 in0.0 mm 0.00 in0.0 mm
07:20 AM 50.8°F10.4°C 48.0°F8.9°C 90% 3.5 mph WSW5.6 kmh WSW 5.8 mph9.3 kmh 29.27 in991.2 mb - 0.00 in0.0 mm 0.00 in0.0 mm
07:30 AM 50.4°F10.2°C 47.9°F8.8°C 91% 3.5 mph NW5.6 kmh NW 5.8 mph9.3 kmh 29.27 in991.2 mb - 0.00 in0.0 mm 0.00 in0.0 mm
07:40 AM 50.3°F10.2°C 47.8°F8.8°C 91% 5.8 mph WSW9.3 kmh WSW 13.8 mph22.2 kmh 29.27 in991.2 mb - 0.00 in0.0 mm 0.00 in0.0 mm
07:50 AM 50.3°F10.2°C 47.8°F8.8°C 91% 4.6 mph WSW7.4 kmh WSW 8.1 mph13.0 kmh 29.28 in991.5 mb - 0.00 in0.0 mm 0.00 in0.0 mm
08:00 AM 50.3°F10.2°C 47.8°F8.8°C 91% 6.9 mph W11.1 kmh W 9.2 mph14.8 kmh 29.28 in991.5 mb - 0.00 in0.0 mm 0.00 in0.0 mm
08:10 AM 50.6°F10.3°C 48.0°F8.9°C 91% 6.9 mph W11.1 kmh W 13.8 mph22.2 kmh 29.29 in991.9 mb - 0.00 in0.0 mm 0.00 in0.0 mm
08:20 AM 50.8°F10.4°C 48.3°F9.1°C 91% 4.6 mph WSW7.4 kmh WSW 9.2 mph14.8 kmh 29.28 in991.5 mb - 0.00 in0.0 mm 0.00 in0.0 mm
08:30 AM 50.8°F10.4°C 48.3°F9.1°C 91% 6.9 mph W11.1 kmh W 11.5 mph18.5 kmh 29.30 in992.2 mb - 0.00 in0.0 mm 0.00 in0.0 mm
08:40 AM 51.2°F10.7°C 48.4°F9.1°C 90% 8.1 mph W13.0 kmh W 15.0 mph24.1 kmh 29.31 in992.6 mb - 0.00 in0.0 mm 0.00 in0.0 mm
08:50 AM 51.3°F10.7°C 48.4°F9.1°C 90% 4.6 mph WSW7.4 kmh WSW 5.8 mph9.3 kmh 29.31 in992.6 mb - 0.00 in0.0 mm 0.00 in0.0 mm
09:00 AM 51.2°F10.7°C 48.4°F9.1°C 90% 6.9 mph WNW11.1 kmh WNW 11.5 mph18.5 kmh 29.32 in992.9 mb - 0.00 in0.0 mm 0.00 in0.0 mm
09:10 AM 51.9°F11.1°C 47.2°F8.4°C 84% 9.2 mph WNW14.8 kmh WNW 12.7 mph20.4 kmh 29.32 in992.9 mb - 0.00 in0.0 mm 0.00 in0.0 mm
09:20 AM 52.2°F11.2°C 46.2°F7.9°C 80% 12.7 mph WNW20.4 kmh WNW 19.6 mph31.5 kmh 29.32 in992.9 mb - 0.00 in0.0 mm 0.00 in0.0 mm
09:30 AM 52.1°F11.2°C 45.4°F7.4°C 78% 8.1 mph W13.0 kmh W 18.4 mph29.6 kmh 29.33 in993.2 mb - 0.00 in0.0 mm 0.00 in0.0 mm
09:40 AM 51.9°F11.1°C 45.3°F7.4°C 78% 9.2 mph WNW14.8 kmh WNW 12.7 mph20.4 kmh 29.34 in993.6 mb - 0.00 in0.0 mm 0.00 in0.0 mm
09:50 AM 51.8°F11.0°C 45.5°F7.5°C 79% 8.1 mph W13.0 kmh W 13.8 mph22.2 kmh 29.35 in993.9 mb - 0.00 in0.0 mm 0.00 in0.0 mm
10:00 AM 51.8°F11.0°C 45.2°F7.3°C 78% 12.7 mph WNW20.4 kmh WNW 20.7 mph33.3 kmh 29.36 in994.2 mb - 0.00 in0.0 mm 0.00 in0.0 mm
10:10 AM 51.9°F11.1°C 44.9°F7.2°C 77% 11.5 mph W18.5 kmh W 19.6 mph31.5 kmh 29.36 in994.2 mb - 0.00 in0.0 mm 0.00 in0.0 mm
10:20 AM 52.2°F11.2°C 44.9°F7.2°C 76% 11.5 mph W18.5 kmh W 21.9 mph35.2 kmh 29.37 in994.6 mb - 0.00 in0.0 mm 0.00 in0.0 mm
10:30 AM 52.4°F11.3°C 44.7°F7.1°C 75% 10.4 mph W16.7 kmh W 19.6 mph31.5 kmh 29.38 in994.9 mb - 0.00 in0.0 mm 0.00 in0.0 mm
10:40 AM 52.5°F11.4°C 44.8°F7.1°C 75% 9.2 mph W14.8 kmh W 13.8 mph22.2 kmh 29.38 in994.9 mb - 0.00 in0.0 mm 0.00 in0.0 mm
10:50 AM 52.3°F11.3°C 45.0°F7.2°C 76% 10.4 mph W16.7 kmh W 19.6 mph31.5 kmh 29.39 in995.3 mb - 0.00 in0.0 mm 0.00 in0.0 mm
11:00 AM 52.3°F11.3°C 45.0°F7.2°C 76% 8.1 mph W13.0 kmh W 11.5 mph18.5 kmh 29.39 in995.3 mb - 0.00 in0.0 mm 0.00 in0.0 mm
11:10 AM 52.2°F11.2°C 45.5°F7.5°C 78% 6.9 mph W11.1 kmh W 10.4 mph16.7 kmh 29.40 in995.6 mb - 0.00 in0.0 mm 0.00 in0.0 mm
11:20 AM 52.0°F11.1°C 47.0°F8.3°C 83% 3.5 mph WSW5.6 kmh WSW 8.1 mph13.0 kmh 29.40 in995.6 mb - 0.00 in0.0 mm 0.00 in0.0 mm
11:30 AM 52.1°F11.2°C 47.7°F8.7°C 85% 6.9 mph NW11.1 kmh NW 11.5 mph18.5 kmh 29.40 in995.6 mb - 0.00 in0.0 mm 0.00 in0.0 mm
11:40 AM 52.1°F11.2°C 48.0°F8.9°C 86% 4.6 mph W7.4 kmh W 11.5 mph18.5 kmh 29.40 in995.6 mb - 0.00 in0.0 mm 0.00 in0.0 mm
11:50 AM 51.8°F11.0°C 47.7°F8.7°C 86% 4.6 mph WNW7.4 kmh WNW 11.5 mph18.5 kmh 29.40 in995.6 mb - 0.00 in0.0 mm 0.00 in0.0 mm
12:00 PM 51.6°F10.9°C 47.2°F8.4°C 85% 8.1 mph W13.0 kmh W 13.8 mph22.2 kmh 29.41 in995.9 mb - 0.00 in0.0 mm 0.00 in0.0 mm
12:10 PM 51.6°F10.9°C 46.6°F8.1°C 83% 5.8 mph WNW9.3 kmh WNW 11.5 mph18.5 kmh 29.41 in995.9 mb - 0.00 in0.0 mm 0.00 in0.0 mm
12:20 PM 51.8°F11.0°C 45.8°F7.7°C 80% 9.2 mph W14.8 kmh W 12.7 mph20.4 kmh 29.42 in996.3 mb - 0.00 in0.0 mm 0.00 in0.0 mm
12:30 PM 51.9°F11.1°C 45.3°F7.4°C 78% 9.2 mph W14.8 kmh W 15.0 mph24.1 kmh 29.42 in996.3 mb - 0.00 in0.0 mm 0.00 in0.0 mm
12:40 PM 51.8°F11.0°C 45.1°F7.3°C 78% 11.5 mph W18.5 kmh W 19.6 mph31.5 kmh 29.43 in996.6 mb - 0.00 in0.0 mm 0.00 in0.0 mm
12:50 PM 51.9°F11.1°C 44.2°F6.8°C 75% 11.5 mph W18.5 kmh W 19.6 mph31.5 kmh 29.43 in996.6 mb - 0.00 in0.0 mm 0.00 in0.0 mm
01:00 PM 51.8°F11.0°C 44.5°F6.9°C 76% 10.4 mph WNW16.7 kmh WNW 16.1 mph25.9 kmh 29.43 in996.6 mb - 0.00 in0.0 mm 0.00 in0.0 mm
01:10 PM 51.8°F11.0°C 44.2°F6.8°C 75% 9.2 mph W14.8 kmh W 12.7 mph20.4 kmh 29.42 in996.3 mb - 0.00 in0.0 mm 0.00 in0.0 mm
01:20 PM 51.8°F11.0°C 44.4°F6.9°C 76% 9.2 mph W14.8 kmh W 20.7 mph33.3 kmh 29.43 in996.6 mb - 0.00 in0.0 mm 0.00 in0.0 mm
01:30 PM 51.6°F10.9°C 44.6°F7.0°C 77% 6.9 mph W11.1 kmh W 11.5 mph18.5 kmh 29.43 in996.6 mb - 0.00 in0.0 mm 0.00 in0.0 mm
01:40 PM 51.4°F10.8°C 45.8°F7.7°C 81% 4.6 mph W7.4 kmh W 9.2 mph14.8 kmh 29.44 in997.0 mb - 0.00 in0.0 mm 0.00 in0.0 mm
01:50 PM 51.2°F10.7°C 45.9°F7.7°C 82% 5.8 mph WSW9.3 kmh WSW 11.5 mph18.5 kmh 29.44 in997.0 mb - 0.00 in0.0 mm 0.00 in0.0 mm
02:00 PM 51.0°F10.6°C 45.7°F7.6°C 82% 5.8 mph WSW9.3 kmh WSW 11.5 mph18.5 kmh 29.44 in997.0 mb - 0.00 in0.0 mm 0.00 in0.0 mm
02:10 PM 50.8°F10.4°C 45.8°F7.7°C 83% 6.9 mph W11.1 kmh W 9.2 mph14.8 kmh 29.44 in997.0 mb - 0.00 in0.0 mm 0.00 in0.0 mm
02:20 PM 50.7°F10.4°C 46.0°F7.8°C 84% 5.8 mph WSW9.3 kmh WSW 11.5 mph18.5 kmh 29.44 in997.0 mb - 0.00 in0.0 mm 0.00 in0.0 mm
02:30 PM 50.6°F10.3°C 46.2°F7.9°C 85% 4.6 mph SW7.4 kmh SW 8.1 mph13.0 kmh 29.44 in997.0 mb - 0.00 in0.0 mm 0.00 in0.0 mm
02:40 PM 50.3°F10.2°C 46.3°F7.9°C 86% 2.3 mph WSW3.7 kmh WSW 5.8 mph9.3 kmh 29.43 in996.6 mb - 0.00 in0.0 mm 0.00 in0.0 mm
02:50 PM 50.2°F10.1°C 46.5°F8.1°C 87% 3.5 mph WSW5.6 kmh WSW 8.1 mph13.0 kmh 29.43 in996.6 mb - 0.00 in0.0 mm 0.00 in0.0 mm
03:00 PM 50.1°F10.1°C 46.4°F8.0°C 87% 5.8 mph W9.3 kmh W 9.2 mph14.8 kmh 29.43 in996.6 mb - 0.00 in0.0 mm 0.00 in0.0 mm
03:10 PM 50.1°F10.1°C 46.7°F8.2°C 88% 3.5 mph W5.6 kmh W 6.9 mph11.1 kmh 29.43 in996.6 mb - 0.00 in0.0 mm 0.00 in0.0 mm
03:20 PM 50.0°F10.0°C 46.9°F8.3°C 89% 3.5 mph WSW5.6 kmh WSW 6.9 mph11.1 kmh 29.43 in996.6 mb - 0.00 in0.0 mm 0.00 in0.0 mm
03:30 PM 49.9°F9.9°C 47.4°F8.6°C 91% 4.6 mph NW7.4 kmh NW 8.1 mph13.0 kmh 29.43 in996.6 mb - 0.00 in0.0 mm 0.00 in0.0 mm
03:40 PM 49.9°F9.9°C 47.4°F8.6°C 91% 4.6 mph WSW7.4 kmh WSW 8.1 mph13.0 kmh 29.44 in997.0 mb - 0.00 in0.0 mm 0.00 in0.0 mm
03:50 PM 49.9°F9.9°C 47.4°F8.6°C 91% 2.3 mph SW3.7 kmh SW 5.8 mph9.3 kmh 29.43 in996.6 mb - 0.00 in0.0 mm 0.00 in0.0 mm
04:00 PM 49.9°F9.9°C 47.7°F8.7°C 92% 1.2 mph SW1.9 kmh SW 2.3 mph3.7 kmh 29.42 in996.3 mb - 0.00 in0.0 mm 0.00 in0.0 mm
04:10 PM 49.8°F9.9°C 47.6°F8.7°C 92% 1.2 mph NW1.9 kmh NW 5.8 mph9.3 kmh 29.42 in996.3 mb - 0.00 in0.0 mm 0.00 in0.0 mm
04:20 PM 49.8°F9.9°C 47.9°F8.8°C 93% 3.5 mph WSW5.6 kmh WSW 6.9 mph11.1 kmh 29.43 in996.6 mb - 0.00 in0.0 mm 0.00 in0.0 mm
04:30 PM 49.9°F9.9°C 48.0°F8.9°C 93% 1.2 mph NW1.9 kmh NW 8.1 mph13.0 kmh 29.41 in995.9 mb - 0.00 in0.0 mm 0.00 in0.0 mm
04:40 PM 49.9°F9.9°C 48.0°F8.9°C 93% 4.6 mph W7.4 kmh W 8.1 mph13.0 kmh 29.41 in995.9 mb - 0.00 in0.0 mm 0.00 in0.0 mm
05:00 PM 49.9°F9.9°C 48.0°F8.9°C 93% Calm Calm 5.8 mph9.3 kmh 29.41 in995.9 mb - 0.00 in0.0 mm 0.00 in0.0 mm
05:10 PM 49.9°F9.9°C 48.0°F8.9°C 93% 1.2 mph SSW1.9 kmh SSW 2.3 mph3.7 kmh 29.40 in995.6 mb - 0.00 in0.0 mm 0.00 in0.0 mm
05:20 PM 49.9°F9.9°C 45.3°F7.4°C 84% 6.9 mph W11.1 kmh W 13.8 mph22.2 kmh 29.39 in995.3 mb - 0.00 in0.0 mm 0.00 in0.0 mm
05:30 PM 51.4°F10.8°C 46.4°F8.0°C 83% 4.6 mph WSW7.4 kmh WSW 8.1 mph13.0 kmh 29.40 in995.6 mb - 0.00 in0.0 mm 0.00 in0.0 mm
05:40 PM 50.7°F10.4°C 47.3°F8.5°C 88% 5.8 mph SW9.3 kmh SW 11.5 mph18.5 kmh 29.39 in995.3 mb - 0.00 in0.0 mm 0.00 in0.0 mm
05:50 PM 50.3°F10.2°C 47.5°F8.6°C 90% 2.3 mph WNW3.7 kmh WNW 5.8 mph9.3 kmh 29.38 in994.9 mb - 0.00 in0.0 mm 0.00 in0.0 mm
06:00 PM 50.1°F10.1°C 47.9°F8.8°C 92% 1.2 mph S1.9 kmh S 2.3 mph3.7 kmh 29.38 in994.9 mb - 0.00 in0.0 mm 0.00 in0.0 mm
06:10 PM 50.3°F10.2°C 48.7°F9.3°C 94% 4.6 mph SW7.4 kmh SW 8.1 mph13.0 kmh 29.38 in994.9 mb - 0.00 in0.0 mm 0.00 in0.0 mm
06:20 PM 50.6°F10.3°C 48.9°F9.4°C 94% 4.6 mph SW7.4 kmh SW 6.9 mph11.1 kmh 29.38 in994.9 mb - 0.00 in0.0 mm 0.00 in0.0 mm
06:30 PM 50.6°F10.3°C 48.9°F9.4°C 94% 6.9 mph SSW11.1 kmh SSW 9.2 mph14.8 kmh 29.37 in994.6 mb - 0.00 in0.0 mm 0.00 in0.0 mm
06:40 PM 50.6°F10.3°C 48.9°F9.4°C 94% 12.7 mph SSW20.4 kmh SSW 19.6 mph31.5 kmh 29.36 in994.2 mb - 0.00 in0.0 mm 0.00 in0.0 mm
06:50 PM 50.1°F10.1°C 48.4°F9.1°C 94% 8.1 mph SSW13.0 kmh SSW 11.5 mph18.5 kmh 29.36 in994.2 mb - 0.00 in0.0 mm 0.00 in0.0 mm
07:00 PM 49.9°F9.9°C 48.2°F9.0°C 94% 8.1 mph SW13.0 kmh SW 13.8 mph22.2 kmh 29.37 in994.6 mb - 0.00 in0.0 mm 0.00 in0.0 mm
07:10 PM 49.0°F9.4°C 47.7°F8.7°C 95% 11.5 mph SW18.5 kmh SW 16.1 mph25.9 kmh 29.36 in994.2 mb - 0.00 in0.0 mm 0.00 in0.0 mm
07:20 PM 48.4°F9.1°C 47.3°F8.5°C 96% 10.4 mph SW16.7 kmh SW 13.8 mph22.2 kmh 29.36 in994.2 mb - 0.00 in0.0 mm 0.00 in0.0 mm
07:30 PM 48.1°F8.9°C 47.0°F8.3°C 96% 13.8 mph SW22.2 kmh SW 19.6 mph31.5 kmh 29.34 in993.6 mb - 0.00 in0.0 mm 0.00 in0.0 mm
07:40 PM 46.9°F8.3°C 45.8°F7.7°C 96% 10.4 mph SSW16.7 kmh SSW 16.1 mph25.9 kmh 29.34 in993.6 mb - 0.00 in0.0 mm 0.00 in0.0 mm
07:50 PM 47.0°F8.3°C 45.9°F7.7°C 96% 11.5 mph S18.5 kmh S 16.1 mph25.9 kmh 29.33 in993.2 mb - 0.00 in0.0 mm 0.00 in0.0 mm
08:00 PM 46.9°F8.3°C 45.8°F7.7°C 96% 10.4 mph S16.7 kmh S 11.5 mph18.5 kmh 29.31 in992.6 mb - 0.00 in0.0 mm 0.00 in0.0 mm
08:10 PM 47.2°F8.4°C 46.1°F7.8°C 96% 12.7 mph SSE20.4 kmh SSE 18.4 mph29.6 kmh 29.30 in992.2 mb - 0.00 in0.0 mm 0.00 in0.0 mm
08:30 PM 47.2°F8.4°C 46.1°F7.8°C 96% 11.5 mph S18.5 kmh S 18.4 mph29.6 kmh 29.26 in990.9 mb - 0.06 in1.5 mm 0.06 in1.5 mm
08:40 PM 47.0°F8.3°C 45.9°F7.7°C 96% 11.5 mph SSE18.5 kmh SSE 13.8 mph22.2 kmh 29.25 in990.5 mb - 0.01 in0.3 mm 0.07 in1.8 mm
08:50 PM 46.8°F8.2°C 46.0°F7.8°C 97% 11.5 mph SSE18.5 kmh SSE 18.4 mph29.6 kmh 29.22 in989.5 mb - 0.02 in0.5 mm 0.09 in2.3 mm
09:00 PM 47.1°F8.4°C 46.3°F7.9°C 97% 11.5 mph S18.5 kmh S 13.8 mph22.2 kmh 29.20 in988.8 mb - 0.02 in0.5 mm 0.11 in2.8 mm
09:10 PM 47.7°F8.7°C 46.9°F8.3°C 97% 11.5 mph S18.5 kmh S 18.4 mph29.6 kmh 29.19 in988.5 mb - 0.02 in0.5 mm 0.13 in3.3 mm
09:20 PM 48.6°F9.2°C 47.7°F8.7°C 97% 10.4 mph S16.7 kmh S 16.1 mph25.9 kmh 29.18 in988.1 mb - 0.02 in0.5 mm 0.15 in3.8 mm
09:30 PM 50.0°F10.0°C 49.1°F9.5°C 97% 11.5 mph SSW18.5 kmh SSW 17.3 mph27.8 kmh 29.17 in987.8 mb - 0.01 in0.3 mm 0.16 in4.1 mm
09:40 PM 50.7°F10.4°C 49.9°F9.9°C 97% 5.8 mph SW9.3 kmh SW 11.5 mph18.5 kmh 29.15 in987.1 mb - 0.02 in0.5 mm 0.18 in4.6 mm
09:50 PM 51.8°F11.0°C 51.0°F10.6°C 97% 16.1 mph WSW25.9 kmh WSW 20.7 mph33.3 kmh 29.14 in986.8 mb - 0.01 in0.3 mm 0.18 in4.6 mm
10:00 PM 52.4°F11.3°C 51.6°F10.9°C 97% 12.7 mph WSW20.4 kmh WSW 19.6 mph31.5 kmh 29.14 in986.8 mb - 0.00 in0.0 mm 0.18 in4.6 mm
10:10 PM 52.7°F11.5°C 51.9°F11.1°C 97% 16.1 mph SW25.9 kmh SW 28.8 mph46.3 kmh 29.13 in986.5 mb - 0.01 in0.3 mm 0.19 in4.8 mm
10:20 PM 52.9°F11.6°C 52.1°F11.2°C 97% 13.8 mph W22.2 kmh W 27.6 mph44.4 kmh 29.12 in986.1 mb - 0.01 in0.3 mm 0.20 in5.1 mm
10:30 PM 53.2°F11.8°C 52.4°F11.3°C 97% 17.3 mph WSW27.8 kmh WSW 26.5 mph42.6 kmh 29.12 in986.1 mb - 0.00 in0.0 mm 0.20 in5.1 mm
10:40 PM 53.2°F11.8°C 52.4°F11.3°C 97% 15.0 mph W24.1 kmh W 28.8 mph46.3 kmh 29.12 in986.1 mb - 0.00 in0.0 mm 0.20 in5.1 mm
10:50 PM 52.8°F11.6°C 52.0°F11.1°C 97% 16.1 mph W25.9 kmh W 27.6 mph44.4 kmh 29.12 in986.1 mb - 0.00 in0.0 mm 0.20 in5.1 mm
11:00 PM 52.4°F11.3°C 51.6°F10.9°C 97% 15.0 mph WSW24.1 kmh WSW 28.8 mph46.3 kmh 29.11 in985.8 mb - 0.00 in0.0 mm 0.20 in5.1 mm
11:10 PM 52.0°F11.1°C 51.2°F10.7°C 97% 15.0 mph WSW24.1 kmh WSW 21.9 mph35.2 kmh 29.12 in986.1 mb - 0.00 in0.0 mm 0.20 in5.1 mm
11:20 PM 51.8°F11.0°C 51.0°F10.6°C 97% 13.8 mph W22.2 kmh W 21.9 mph35.2 kmh 29.12 in986.1 mb - 0.00 in0.0 mm 0.20 in5.1 mm
11:30 PM 51.7°F10.9°C 50.9°F10.5°C 97% 12.7 mph W20.4 kmh W 21.9 mph35.2 kmh 29.12 in986.1 mb - 0.00 in0.0 mm 0.20 in5.1 mm
11:40 PM 51.7°F10.9°C 50.9°F10.5°C 97% 16.1 mph W25.9 kmh W 21.9 mph35.2 kmh 29.12 in986.1 mb - 0.00 in0.0 mm 0.20 in5.1 mm
11:50 PM 51.8°F11.0°C 51.0°F10.6°C 97% 16.1 mph W25.9 kmh W 20.7 mph33.3 kmh 29.13 in986.5 mb - 0.00 in0.0 mm 0.20 in5.1 mm